Time;durP1;ratioP1;P1;durP2;ratioP2;P2;SDS_P1;SDS_P2;PMS_P1;PMS_P2;Temp;Humidity;BMP_temperature;BMP_pressure;BME280_temperature;BME280_humidity;BME280_pressure;Samples;Min_cycle;Max_cycle;Signal;HPM_P1;HPM_P2
2023/08/03 00:00:23;;;;;;;3.50;2.60;;;;;;;;;;5008917;28;20045;-80
2023/08/03 00:02:50;;;;;;;3.72;2.70;;;;;;;;;;5018183;28;20053;-80
2023/08/03 00:05:19;;;;;;;3.83;2.75;;;;;;;;;;5014690;28;20076;-80
2023/08/03 00:07:48;;;;;;;7.18;3.17;;;;;;;;;;5021865;28;20478;-80
2023/08/03 00:10:17;;;;;;;456.67;135.50;;;;;;;;;;5017120;28;20042;-80
2023/08/03 00:12:45;;;;;;;5.43;3.80;;;;;;;;;;5014507;28;20073;-80
2023/08/03 00:15:13;;;;;;;5.30;2.67;;;;;;;;;;5011127;28;20416;-80
2023/08/03 00:17:41;;;;;;;7.90;3.80;;;;;;;;;;5017688;28;20045;-80
2023/08/03 00:20:09;;;;;;;4.10;2.90;;;;;;;;;;5011163;28;20034;-80
2023/08/03 00:22:37;;;;;;;3.55;2.65;;;;;;;;;;5024018;28;20053;-79
2023/08/03 00:25:05;;;;;;;4.15;2.78;;;;;;;;;;5018058;28;20123;-79
2023/08/03 00:27:37;;;;;;;3.40;2.70;;;;;;;;;;5017687;28;20107;-79
2023/08/03 00:30:05;;;;;;;4.72;2.58;;;;;;;;;;5014802;28;20041;-79
2023/08/03 00:32:32;;;;;;;2.70;2.38;;;;;;;;;;5024115;28;20052;-79
2023/08/03 00:35:02;;;;;;;2.83;2.20;;;;;;;;;;5026342;28;20077;-79
2023/08/03 00:37:30;;;;;;;1.48;1.30;;;;;;;;;;5013092;28;20115;-79
2023/08/03 00:39:57;;;;;;;2.05;1.75;;;;;;;;;;5015699;28;20073;-80
2023/08/03 00:42:25;;;;;;;2.95;1.55;;;;;;;;;;5017682;28;20038;-80
2023/08/03 00:44:53;;;;;;;3.38;1.67;;;;;;;;;;5019152;28;20144;-80
2023/08/03 00:47:21;;;;;;;13.52;5.55;;;;;;;;;;5021120;28;20443;-80
2023/08/03 00:49:48;;;;;;;2.63;1.90;;;;;;;;;;5015024;28;20056;-80
2023/08/03 00:52:16;;;;;;;1.60;1.50;;;;;;;;;;5020153;28;20543;-80
2023/08/03 00:54:43;;;;;;;2.50;1.52;;;;;;;;;;5014701;28;20056;-80
2023/08/03 00:57:11;;;;;;;5.07;1.65;;;;;;;;;;5039323;28;20104;-80
2023/08/03 00:59:39;;;;;;;3.65;1.70;;;;;;;;;;5017274;28;20045;-80
2023/08/03 01:02:08;;;;;;;2.15;1.38;;;;;;;;;;5010742;28;20050;-78
2023/08/03 01:04:36;;;;;;;6.88;1.60;;;;;;;;;;5015157;28;20042;-80
2023/08/03 01:07:06;;;;;;;4.18;1.45;;;;;;;;;;5015338;28;20510;-81
2023/08/03 01:09:33;;;;;;;4.18;1.40;;;;;;;;;;5012858;28;20241;-81
2023/08/03 01:12:01;;;;;;;6.65;2.28;;;;;;;;;;5018717;28;20511;-81
2023/08/03 01:14:28;;;;;;;3.50;3.17;;;;;;;;;;5014295;28;20136;-81
2023/08/03 01:16:56;;;;;;;4.10;2.05;;;;;;;;;;5019013;28;20045;-81
2023/08/03 01:19:24;;;;;;;1.90;1.80;;;;;;;;;;5021060;28;20432;-82
2023/08/03 01:21:53;;;;;;;4.38;1.50;;;;;;;;;;5019861;28;20049;-81
2023/08/03 01:24:20;;;;;;;4.60;1.60;;;;;;;;;;5024027;28;20057;-81
2023/08/03 01:26:48;;;;;;;2.88;1.50;;;;;;;;;;5010479;28;20052;-81
2023/08/03 01:29:16;;;;;;;3.95;1.35;;;;;;;;;;5019907;28;20500;-81
2023/08/03 01:31:43;;;;;;;2.55;1.42;;;;;;;;;;5027580;28;20052;-81
2023/08/03 01:34:13;;;;;;;2.58;1.52;;;;;;;;;;5023561;28;20856;-81
2023/08/03 01:36:41;;;;;;;1.38;1.20;;;;;;;;;;5034366;28;20057;-81
2023/08/03 01:39:21;;;;;;;6.43;1.40;;;;;;;;;;5004902;28;20314;-81
2023/08/03 01:41:49;;;;;;;1.50;1.17;;;;;;;;;;5010742;28;20053;-81
2023/08/03 01:44:25;;;;;;;4.22;1.48;;;;;;;;;;5010984;28;20041;-81
2023/08/03 01:46:53;;;;;;;2.67;1.60;;;;;;;;;;5009919;28;20115;-81
2023/08/03 01:49:22;;;;;;;3.88;1.30;;;;;;;;;;5026413;28;20053;-81
2023/08/03 01:51:50;;;;;;;2.60;1.50;;;;;;;;;;5023433;28;20063;-80
2023/08/03 01:54:17;;;;;;;2.10;1.08;;;;;;;;;;4995798;28;20053;-80
2023/08/03 01:56:45;;;;;;;4.07;1.30;;;;;;;;;;5021169;28;20327;-81
2023/08/03 01:59:13;;;;;;;1.25;1.10;;;;;;;;;;5016821;28;20044;-81
2023/08/03 02:01:40;;;;;;;2.30;1.17;;;;;;;;;;5012709;28;20534;-80
2023/08/03 02:04:08;;;;;;;3.10;1.20;;;;;;;;;;5016142;28;20048;-81
2023/08/03 02:06:38;;;;;;;5.47;1.40;;;;;;;;;;5015029;28;20467;-81
2023/08/03 02:09:06;;;;;;;5.88;1.50;;;;;;;;;;5020415;28;20105;-81
2023/08/03 02:11:34;;;;;;;6.00;1.77;;;;;;;;;;5024056;28;20042;-81
2023/08/03 02:14:02;;;;;;;3.42;1.38;;;;;;;;;;5022164;28;20069;-81
2023/08/03 02:16:30;;;;;;;4.20;1.52;;;;;;;;;;5006650;28;20092;-80
2023/08/03 02:18:58;;;;;;;5.75;1.40;;;;;;;;;;4999578;28;20054;-81
2023/08/03 02:21:25;;;;;;;6.03;1.50;;;;;;;;;;5015816;28;20046;-81
2023/08/03 02:23:54;;;;;;;2.97;1.02;;;;;;;;;;5009192;28;20049;-81
2023/08/03 02:26:21;;;;;;;3.78;1.50;;;;;;;;;;5018180;28;20049;-81
2023/08/03 02:28:49;;;;;;;4.53;1.20;;;;;;;;;;5013023;28;20504;-81
2023/08/03 02:31:17;;;;;;;4.38;1.30;;;;;;;;;;5016136;28;20056;-81
2023/08/03 02:33:48;;;;;;;;;;;;;;;;;;5013615;28;20049;-81
2023/08/03 02:36:24;;;;;;;3.08;1.15;;;;;;;;;;5023047;28;20027;-80
2023/08/03 02:38:57;;;;;;;1.35;1.10;;;;;;;;;;5018709;28;20147;-81
2023/08/03 02:41:33;;;;;;;3.28;1.55;;;;;;;;;;5020846;28;20057;-79
2023/08/03 02:44:03;;;;;;;3.22;1.05;;;;;;;;;;5017727;28;20426;-79
2023/08/03 02:46:33;;;;;;;3.47;1.42;;;;;;;;;;5015517;28;20292;-79
2023/08/03 02:49:01;;;;;;;3.40;1.30;;;;;;;;;;5013021;28;20072;-79
2023/08/03 02:51:30;;;;;;;4.07;1.40;;;;;;;;;;5019770;28;20047;-79
2023/08/03 02:53:58;;;;;;;3.42;1.50;;;;;;;;;;5017138;28;20096;-79
2023/08/03 02:56:30;;;;;;;1.90;1.30;;;;;;;;;;5017981;28;20041;-79
2023/08/03 02:59:00;;;;;;;4.38;1.42;;;;;;;;;;5010060;28;20428;-79
2023/08/03 03:01:36;;;;;;;4.70;1.30;;;;;;;;;;5022148;28;20045;-78
2023/08/03 03:04:04;;;;;;;4.90;1.40;;;;;;;;;;5008041;28;20081;-79
2023/08/03 03:06:33;;;;;;;8.00;1.25;;;;;;;;;;5012777;28;20045;-78
2023/08/03 03:09:00;;;;;;;3.83;1.40;;;;;;;;;;5008596;28;20611;-79
2023/08/03 03:11:28;;;;;;;6.70;1.38;;;;;;;;;;5020409;28;20590;-78
2023/08/03 03:13:56;;;;;;;7.30;1.67;;;;;;;;;;5015296;28;20056;-79
2023/08/03 03:16:27;;;;;;;6.97;1.50;;;;;;;;;;5017722;28;20533;-78
2023/08/03 03:18:56;;;;;;;1.70;1.60;;;;;;;;;;5007751;28;20475;-79
2023/08/03 03:21:26;;;;;;;4.95;1.73;;;;;;;;;;5014938;28;20056;-79
2023/08/03 03:23:54;;;;;;;4.95;1.50;;;;;;;;;;5015912;28;20045;-79
2023/08/03 03:26:21;;;;;;;3.35;1.48;;;;;;;;;;5020036;28;20038;-78
2023/08/03 03:28:48;;;;;;;3.33;1.90;;;;;;;;;;5029093;28;20051;-78
2023/08/03 03:31:22;;;;;;;1.63;1.30;;;;;;;;;;5005627;28;20105;-79
2023/08/03 03:33:51;;;;;;;3.42;1.58;;;;;;;;;;5005000;28;20069;-79
2023/08/03 03:36:18;;;;;;;3.33;1.40;;;;;;;;;;5017848;28;20496;-78
2023/08/03 03:38:46;;;;;;;6.03;1.77;;;;;;;;;;5008669;28;20038;-78
2023/08/03 03:41:13;;;;;;;3.95;1.52;;;;;;;;;;5009421;28;20042;-78
2023/08/03 03:43:43;;;;;;;3.72;1.70;;;;;;;;;;5016167;28;20091;-78
2023/08/03 03:46:11;;;;;;;3.28;1.90;;;;;;;;;;5017538;28;20083;-78
2023/08/03 03:48:39;;;;;;;6.00;1.90;;;;;;;;;;5012966;28;20045;-78
2023/08/03 03:51:07;;;;;;;4.47;2.05;;;;;;;;;;5020330;28;20048;-79
2023/08/03 03:53:36;;;;;;;5.70;1.70;;;;;;;;;;5015460;28;20046;-78
2023/08/03 03:56:10;;;;;;;3.53;2.10;;;;;;;;;;5012066;28;20053;-79
2023/08/03 03:58:38;;;;;;;3.88;1.80;;;;;;;;;;5016197;28;20048;-79
2023/08/03 04:01:06;;;;;;;3.38;1.85;;;;;;;;;;5015649;28;20049;-79
2023/08/03 04:03:34;;;;;;;3.65;1.83;;;;;;;;;;5002926;28;20071;-80
2023/08/03 04:06:05;;;;;;;7.10;2.70;;;;;;;;;;5004239;28;20081;-79
2023/08/03 04:08:32;;;;;;;5.78;2.08;;;;;;;;;;5022133;28;20061;-79
2023/08/03 04:11:01;;;;;;;6.50;2.00;;;;;;;;;;5025723;28;20346;-79
2023/08/03 04:13:29;;;;;;;3.85;1.77;;;;;;;;;;5009702;28;20046;-79
2023/08/03 04:15:58;;;;;;;6.47;1.60;;;;;;;;;;5021562;28;20049;-79
2023/08/03 04:18:27;;;;;;;7.38;1.90;;;;;;;;;;5009173;28;20049;-79
2023/08/03 04:20:55;;;;;;;6.00;1.92;;;;;;;;;;5025666;28;20030;-79
2023/08/03 04:23:23;;;;;;;5.55;1.95;;;;;;;;;;5025016;28;20037;-79
2023/08/03 04:25:52;;;;;;;3.58;1.67;;;;;;;;;;5024131;28;20103;-79
2023/08/03 04:28:23;;;;;;;4.40;1.67;;;;;;;;;;5015554;28;20058;-78
2023/08/03 04:30:50;;;;;;;7.78;1.88;;;;;;;;;;5015196;28;20057;-78
2023/08/03 04:33:18;;;;;;;8.60;1.90;;;;;;;;;;4994157;28;20045;-78
2023/08/03 04:35:50;;;;;;;2.08;1.60;;;;;;;;;;5013384;28;20414;-79
2023/08/03 04:38:22;;;;;;;;;;;;;;;;;;5001224;28;20073;-79
2023/08/03 04:40:56;;;;;;;4.90;1.65;;;;;;;;;;5024675;28;20168;-79
2023/08/03 04:43:27;;;;;;;4.50;1.83;;;;;;;;;;5020079;28;20126;-80
2023/08/03 04:45:54;;;;;;;7.53;2.60;;;;;;;;;;5017102;28;20045;-79
2023/08/03 04:48:22;;;;;;;4.10;1.88;;;;;;;;;;5021546;28;20087;-80
2023/08/03 04:50:50;;;;;;;6.10;1.85;;;;;;;;;;5022288;28;20491;-81
2023/08/03 04:53:19;;;;;;;6.45;1.90;;;;;;;;;;5014021;28;20627;-80
2023/08/03 04:55:47;;;;;;;4.57;2.05;;;;;;;;;;5015938;28;20511;-80
2023/08/03 04:58:14;;;;;;;8.63;2.00;;;;;;;;;;5042197;23;20045;-76
2023/08/03 05:00:47;;;;;;;3.10;2.03;;;;;;;;;;5041955;28;20220;-76
2023/08/03 05:03:16;;;;;;;2.60;1.80;;;;;;;;;;5056034;28;20098;-76
2023/08/03 05:05:45;;;;;;;6.80;1.83;;;;;;;;;;5054718;28;20040;-75
2023/08/03 05:08:17;;;;;;;6.40;1.70;;;;;;;;;;5061128;28;20049;-75
2023/08/03 05:10:46;;;;;;;4.20;1.40;;;;;;;;;;5061283;28;20128;-76
2023/08/03 05:13:16;;;;;;;6.32;1.67;;;;;;;;;;5048624;28;20309;-75
2023/08/03 05:15:45;;;;;;;6.85;1.77;;;;;;;;;;5030668;28;20406;-76
2023/08/03 05:18:14;;;;;;;3.40;1.40;;;;;;;;;;5055432;28;20048;-75
2023/08/03 05:20:42;;;;;;;5.70;1.70;;;;;;;;;;5057996;28;20134;-75
2023/08/03 05:23:12;;;;;;;5.88;1.50;;;;;;;;;;5036080;28;20064;-77
2023/08/03 05:25:40;;;;;;;3.55;1.55;;;;;;;;;;5063483;28;20075;-76
2023/08/03 05:28:09;;;;;;;4.60;1.80;;;;;;;;;;5040463;28;20049;-75
2023/08/03 05:30:37;;;;;;;4.80;1.80;;;;;;;;;;5057252;28;20477;-76
2023/08/03 05:33:06;;;;;;;3.78;1.60;;;;;;;;;;5054831;28;20047;-76
2023/08/03 05:35:34;;;;;;;6.32;1.40;;;;;;;;;;5039352;28;20127;-76
2023/08/03 05:38:02;;;;;;;7.07;1.73;;;;;;;;;;5059568;28;20067;-76
2023/08/03 05:40:31;;;;;;;3.78;1.80;;;;;;;;;;5065269;28;20045;-75
2023/08/03 05:43:00;;;;;;;4.85;1.90;;;;;;;;;;5057924;28;20075;-76
2023/08/03 05:45:35;;;;;;;4.18;1.80;;;;;;;;;;5054420;28;20040;-75
2023/08/03 05:48:04;;;;;;;6.97;1.70;;;;;;;;;;5050404;28;20910;-76
2023/08/03 05:50:33;;;;;;;5.63;1.80;;;;;;;;;;5052622;28;20044;-76
2023/08/03 05:53:00;;;;;;;6.90;2.10;;;;;;;;;;5055934;28;20152;-76
2023/08/03 05:55:29;;;;;;;9.45;2.15;;;;;;;;;;5038543;28;20048;-75
2023/08/03 05:57:56;;;;;;;4.25;1.75;;;;;;;;;;5060752;28;20060;-76
2023/08/03 06:00:26;;;;;;;5.78;2.10;;;;;;;;;;5033692;28;20053;-76
2023/08/03 06:02:56;;;;;;;6.18;1.90;;;;;;;;;;5055793;28;20430;-76
2023/08/03 06:05:44;;;;;;;3.40;1.73;;;;;;;;;;5053244;28;20457;-76
2023/08/03 06:08:23;;;;;;;8.88;2.00;;;;;;;;;;5039338;28;20364;-76
2023/08/03 06:10:55;;;;;;;4.28;1.77;;;;;;;;;;5047391;28;20082;-76
2023/08/03 06:13:31;;;;;;;5.95;1.58;;;;;;;;;;5050402;28;20044;-76
2023/08/03 06:16:04;;;;;;;4.53;1.60;;;;;;;;;;5037406;28;20499;-76
2023/08/03 06:18:32;;;;;;;6.72;1.70;;;;;;;;;;5055142;28;20123;-75
2023/08/03 06:21:04;;;;;;;11.27;1.88;;;;;;;;;;5054971;28;20499;-75
2023/08/03 06:23:32;;;;;;;5.63;1.90;;;;;;;;;;5059860;28;20553;-75
2023/08/03 06:26:01;;;;;;;6.57;1.80;;;;;;;;;;5063861;28;20098;-75
2023/08/03 06:28:30;;;;;;;6.70;1.77;;;;;;;;;;5044298;28;20044;-76
2023/08/03 06:30:59;;;;;;;7.57;1.90;;;;;;;;;;5060562;28;20098;-75
2023/08/03 06:33:27;;;;;;;6.88;1.80;;;;;;;;;;5031461;28;20619;-76
2023/08/03 06:35:55;;;;;;;8.68;1.90;;;;;;;;;;5052703;28;20051;-75
2023/08/03 06:38:23;;;;;;;3.72;1.02;;;;;;;;;;5048565;28;20604;-77
2023/08/03 06:40:51;;;;;;;7.78;2.08;;;;;;;;;;5051192;28;20139;-77
2023/08/03 06:43:18;;;;;;;5.72;1.70;;;;;;;;;;5049115;28;20310;-76
2023/08/03 06:45:46;;;;;;;4.55;1.73;;;;;;;;;;5051945;28;20040;-77
2023/08/03 06:48:14;;;;;;;6.72;2.03;;;;;;;;;;5052186;28;20119;-77
2023/08/03 06:50:43;;;;;;;5.10;1.70;;;;;;;;;;5063714;28;20529;-77
2023/08/03 06:53:10;;;;;;;7.35;1.77;;;;;;;;;;5057922;28;20067;-76
2023/08/03 06:55:37;;;;;;;7.88;1.75;;;;;;;;;;5058478;28;20456;-77
2023/08/03 06:58:05;;;;;;;6.43;1.75;;;;;;;;;;5044102;28;20118;-77
2023/08/03 07:00:32;;;;;;;4.13;1.80;;;;;;;;;;5044256;28;20083;-76
2023/08/03 07:03:00;;;;;;;6.93;1.85;;;;;;;;;;5047057;28;20121;-77
2023/08/03 07:05:27;;;;;;;8.05;1.77;;;;;;;;;;5049760;28;20607;-77
2023/08/03 07:07:55;;;;;;;8.23;1.55;;;;;;;;;;5053639;28;20753;-76
2023/08/03 07:10:22;;;;;;;6.85;1.70;;;;;;;;;;5059086;28;20044;-76
2023/08/03 07:12:50;;;;;;;4.97;1.35;;;;;;;;;;5059897;28;20498;-76
2023/08/03 07:15:17;;;;;;;8.13;1.80;;;;;;;;;;5060696;28;20044;-76
2023/08/03 07:17:45;;;;;;;5.20;1.52;;;;;;;;;;5048726;28;20048;-76
2023/08/03 07:20:13;;;;;;;3.00;1.20;;;;;;;;;;5052145;28;20132;-76
2023/08/03 07:22:41;;;;;;;7.43;1.75;;;;;;;;;;5053385;28;20124;-76
2023/08/03 07:25:08;;;;;;;7.32;1.80;;;;;;;;;;5044101;28;20078;-76
2023/08/03 07:27:35;;;;;;;5.55;1.60;;;;;;;;;;5042501;28;20611;-76
2023/08/03 07:30:03;;;;;;;6.47;1.75;;;;;;;;;;5044644;28;20586;-76
2023/08/03 07:32:31;;;;;;;8.07;1.98;;;;;;;;;;5043112;28;20152;-76
2023/08/03 07:34:59;;;;;;;4.00;1.80;;;;;;;;;;5038547;28;20395;-76
2023/08/03 07:37:27;;;;;;;5.63;1.73;;;;;;;;;;5044129;28;20560;-75
2023/08/03 07:39:54;;;;;;;6.57;1.90;;;;;;;;;;5060848;28;20040;-76
2023/08/03 07:42:22;;;;;;;3.40;2.28;;;;;;;;;;5049401;28;20077;-75
2023/08/03 07:44:53;;;;;;;4.55;1.80;;;;;;;;;;5052738;28;20118;-75
2023/08/03 07:47:21;;;;;;;;;;;;;;;;;;5049962;28;20041;-74
2023/08/03 07:49:48;;;;;;;5.72;1.77;;;;;;;;;;5048205;28;20351;-75
2023/08/03 07:52:15;;;;;;;5.10;2.00;;;;;;;;;;5054586;28;20056;-75
2023/08/03 07:54:43;;;;;;;4.13;1.80;;;;;;;;;;5049225;28;20135;-75
2023/08/03 07:57:15;;;;;;;7.78;1.85;;;;;;;;;;5051321;28;20044;-75
2023/08/03 07:59:43;;;;;;;5.18;1.80;;;;;;;;;;5053820;28;20047;-74
2023/08/03 08:02:10;;;;;;;5.00;1.55;;;;;;;;;;5047937;28;20049;-74
2023/08/03 08:04:38;;;;;;;5.90;1.83;;;;;;;;;;5046635;28;20124;-74
2023/08/03 08:07:06;;;;;;;5.25;1.60;;;;;;;;;;5031166;28;20148;-75
2023/08/03 08:09:33;;;;;;;4.63;1.40;;;;;;;;;;5054852;28;20450;-75
2023/08/03 08:12:01;;;;;;;2.80;1.48;;;;;;;;;;5051276;28;20036;-75
2023/08/03 08:14:28;;;;;;;3.65;1.42;;;;;;;;;;5055342;28;20056;-75
2023/08/03 08:16:56;;;;;;;4.18;1.38;;;;;;;;;;5042918;28;20083;-78
2023/08/03 08:19:39;;;;;;;2.42;1.30;;;;;;;;;;5047548;28;20049;-75
2023/08/03 08:22:08;;;;;;;3.33;1.48;;;;;;;;;;5044510;28;20041;-75
2023/08/03 08:24:44;;;;;;;2.03;1.08;;;;;;;;;;5046297;28;20048;-75
2023/08/03 08:27:12;;;;;;;3.45;1.40;;;;;;;;;;5045805;28;20128;-74
2023/08/03 08:29:40;;;;;;;3.15;1.60;;;;;;;;;;5050777;28;20139;-74
2023/08/03 08:32:08;;;;;;;4.15;1.50;;;;;;;;;;5046860;28;20060;-75
2023/08/03 08:34:36;;;;;;;3.00;1.13;;;;;;;;;;5048024;28;20053;-75
2023/08/03 08:37:03;;;;;;;3.30;1.50;;;;;;;;;;5049777;28;20048;-74
2023/08/03 08:39:31;;;;;;;2.55;1.10;;;;;;;;;;5041832;28;20057;-74
2023/08/03 08:41:58;;;;;;;6.47;1.45;;;;;;;;;;5051553;28;20049;-74
2023/08/03 08:44:25;;;;;;;3.40;1.40;;;;;;;;;;5043062;28;20067;-74
2023/08/03 08:46:53;;;;;;;4.43;1.52;;;;;;;;;;5052044;28;20452;-76
2023/08/03 08:49:22;;;;;;;2.90;1.45;;;;;;;;;;5045234;28;20068;-74
2023/08/03 08:51:58;;;;;;;3.30;1.50;;;;;;;;;;5048770;28;20102;-74
2023/08/03 08:54:33;;;;;;;2.53;1.08;;;;;;;;;;5049410;28;20057;-74
2023/08/03 08:57:03;;;;;;;2.05;1.20;;;;;;;;;;5044895;28;20053;-74
2023/08/03 08:59:37;;;;;;;3.58;1.30;;;;;;;;;;5056509;28;20083;-74
2023/08/03 09:02:05;;;;;;;6.03;1.10;;;;;;;;;;5044719;28;20132;-74
2023/08/03 09:04:33;;;;;;;3.25;1.00;;;;;;;;;;5053173;28;20502;-75
2023/08/03 09:07:03;;;;;;;1.98;1.00;;;;;;;;;;5061573;28;20417;-73
2023/08/03 09:09:35;;;;;;;5.47;1.20;;;;;;;;;;5060673;28;20059;-74
2023/08/03 09:12:04;;;;;;;3.70;1.15;;;;;;;;;;5050218;28;20498;-76
2023/08/03 09:14:50;;;;;;;2.15;0.77;;;;;;;;;;5056900;28;20056;-74
2023/08/03 09:17:19;;;;;;;1.90;0.70;;;;;;;;;;5067817;28;20090;-72
2023/08/03 09:19:47;;;;;;;0.70;0.70;;;;;;;;;;5033776;28;20064;-74
2023/08/03 09:22:21;;;;;;;2.53;0.90;;;;;;;;;;5068605;28;20441;-72
2023/08/03 09:25:08;;;;;;;2.10;0.98;;;;;;;;;;5051671;28;20383;-72
2023/08/03 09:27:36;;;;;;;1.27;0.50;;;;;;;;;;5067626;28;20128;-73
2023/08/03 09:30:07;;;;;;;2.83;0.70;;;;;;;;;;5062318;28;20441;-74
2023/08/03 09:32:37;;;;;;;2.53;0.60;;;;;;;;;;5047930;28;20052;-74
2023/08/03 09:35:20;;;;;;;1.50;0.52;;;;;;;;;;5066971;28;20097;-72
2023/08/03 09:37:49;;;;;;;1.05;0.50;;;;;;;;;;5064573;28;20510;-73
2023/08/03 09:40:19;;;;;;;1.90;0.60;;;;;;;;;;5047389;28;20041;-73
2023/08/03 09:42:49;;;;;;;2.67;0.82;;;;;;;;;;5049229;28;20461;-74
2023/08/03 09:45:18;;;;;;;4.82;1.20;;;;;;;;;;5050483;28;20387;-74
2023/08/03 09:47:50;;;;;;;3.35;0.50;;;;;;;;;;5065308;28;20041;-74
2023/08/03 09:50:19;;;;;;;1.38;0.77;;;;;;;;;;5061933;28;20055;-74
2023/08/03 09:52:48;;;;;;;1.27;0.60;;;;;;;;;;5047697;28;20057;-74
2023/08/03 09:55:23;;;;;;;0.55;0.50;;;;;;;;;;5061414;28;20079;-73
2023/08/03 09:58:03;;;;;;;1.42;0.43;;;;;;;;;;5031987;28;20041;-73
2023/08/03 10:00:30;;;;;;;0.60;0.50;;;;;;;;;;5067561;28;20044;-74
2023/08/03 10:03:01;;;;;;;2.75;0.90;;;;;;;;;;5056088;28;20051;-75
2023/08/03 10:05:29;;;;;;;1.07;0.60;;;;;;;;;;5055310;28;20056;-74
2023/08/03 10:08:03;;;;;;;3.70;0.60;;;;;;;;;;5058579;28;20052;-78
2023/08/03 10:10:32;;;;;;;0.75;0.40;;;;;;;;;;5063095;28;20052;-74
2023/08/03 10:13:02;;;;;;;2.33;0.60;;;;;;;;;;5054401;28;20502;-73
2023/08/03 10:15:29;;;;;;;0.88;0.70;;;;;;;;;;5055420;28;20055;-74
2023/08/03 10:17:57;;;;;;;1.15;0.43;;;;;;;;;;5062806;28;20057;-74
2023/08/03 10:20:27;;;;;;;1.23;0.50;;;;;;;;;;5057080;28;20044;-76
2023/08/03 10:23:11;;;;;;;0.73;0.60;;;;;;;;;;5060543;28;20045;-72
2023/08/03 10:25:52;;;;;;;0.70;0.47;;;;;;;;;;5063406;28;20049;-74
2023/08/03 10:28:26;;;;;;;1.67;0.50;;;;;;;;;;5064126;28;20374;-75
2023/08/03 10:31:06;;;;;;;1.10;0.40;;;;;;;;;;5065142;28;20044;-75
2023/08/03 10:33:51;;;;;;;1.55;0.60;;;;;;;;;;5059926;28;20058;-74
2023/08/03 10:36:33;;;;;;;3.75;0.73;;;;;;;;;;5056147;28;20124;-74
2023/08/03 10:39:01;;;;;;;;;;;;;;;;;;5067702;28;20079;-75
2023/08/03 10:41:36;;;;;;;2.42;0.60;;;;;;;;;;5063562;28;19932;-76
2023/08/03 10:44:12;;;;;;;2.10;0.47;;;;;;;;;;5061182;28;20037;-73
2023/08/03 10:46:40;;;;;;;2.42;0.40;;;;;;;;;;5062760;28;20133;-75
2023/08/03 10:49:20;;;;;;;2.47;0.47;;;;;;;;;;5066375;28;20071;-74
2023/08/03 10:51:49;;;;;;;0.40;0.40;;;;;;;;;;5067160;28;20057;-74
2023/08/03 10:54:17;;;;;;;2.63;0.80;;;;;;;;;;5059265;28;20562;-74
2023/08/03 10:57:04;;;;;;;2.03;0.88;;;;;;;;;;5065409;28;20051;-74
2023/08/03 10:59:43;;;;;;;1.80;0.80;;;;;;;;;;5114893;22;20068;-86
2023/08/03 11:02:20;;;;;;;1.13;0.90;;;;;;;;;;5013647;28;20046;-88
2023/08/03 11:04:52;;;;;;;1.25;0.65;;;;;;;;;;5003664;28;20046;-87
2023/08/03 11:07:23;;;;;;;1.58;0.90;;;;;;;;;;5010013;28;20512;-88
2023/08/03 11:09:54;;;;;;;3.00;0.97;;;;;;;;;;5010320;28;20496;-88
2023/08/03 11:12:47;;;;;;;3.17;1.17;;;;;;;;;;4991996;28;20053;-88
2023/08/03 11:15:16;;;;;;;1.02;0.75;;;;;;;;;;5008201;28;20574;-87
2023/08/03 11:17:47;;;;;;;1.05;0.80;;;;;;;;;;5007622;28;20042;-85
2023/08/03 11:20:14;;;;;;;1.08;0.73;;;;;;;;;;4994524;28;20088;-87
2023/08/03 11:22:42;;;;;;;2.40;1.00;;;;;;;;;;4991938;28;20030;-87
2023/08/03 11:25:09;;;;;;;1.05;0.80;;;;;;;;;;4995259;28;20488;-87
2023/08/03 11:27:40;;;;;;;1.17;0.80;;;;;;;;;;4977383;28;20117;-87
2023/08/03 11:30:08;;;;;;;1.77;0.80;;;;;;;;;;5007486;28;20539;-87
2023/08/03 11:32:35;;;;;;;3.67;1.10;;;;;;;;;;4976861;28;20132;-86
2023/08/03 11:35:10;;;;;;;3.85;0.88;;;;;;;;;;5008970;28;20440;-86
2023/08/03 11:38:04;;;;;;;2.22;0.85;;;;;;;;;;5002769;28;20606;-86
2023/08/03 11:40:32;;;;;;;2.50;1.00;;;;;;;;;;5005384;28;20101;-87
2023/08/03 11:43:01;;;;;;;4.13;0.80;;;;;;;;;;4987113;28;20137;-87
2023/08/03 11:45:30;;;;;;;3.58;1.05;;;;;;;;;;4987567;28;20562;-86
2023/08/03 11:47:59;;;;;;;3.75;0.90;;;;;;;;;;5002801;28;20049;-87
2023/08/03 11:50:26;;;;;;;2.42;0.98;;;;;;;;;;5007804;28;20165;-86
2023/08/03 11:53:00;;;;;;;4.15;1.10;;;;;;;;;;4989307;28;20496;-88
2023/08/03 11:55:45;;;;;;;3.10;0.75;;;;;;;;;;5003560;28;20143;-87
2023/08/03 11:58:19;;;;;;;2.15;0.80;;;;;;;;;;5001432;28;20046;-88
2023/08/03 12:00:48;;;;;;;1.67;0.70;;;;;;;;;;4987877;28;20050;-87
2023/08/03 12:03:31;;;;;;;1.65;0.90;;;;;;;;;;5003514;28;20042;-87
2023/08/03 12:06:03;;;;;;;2.00;1.00;;;;;;;;;;5004051;28;20042;-87
2023/08/03 12:08:48;;;;;;;4.97;0.70;;;;;;;;;;4991569;28;20136;-88
2023/08/03 12:11:19;;;;;;;2.40;0.75;;;;;;;;;;5005439;28;20041;-87
2023/08/03 12:13:51;;;;;;;1.98;0.90;;;;;;;;;;4988583;28;20038;-85
2023/08/03 12:16:18;;;;;;;1.45;0.80;;;;;;;;;;4985449;28;20047;-86
2023/08/03 12:18:46;;;;;;;4.63;1.15;;;;;;;;;;5005057;28;20057;-84
2023/08/03 12:21:17;;;;;;;1.45;1.02;;;;;;;;;;5008813;28;20120;-86
2023/08/03 12:23:45;;;;;;;1.90;0.80;;;;;;;;;;5001246;28;20046;-87
2023/08/03 12:26:12;;;;;;;2.35;1.15;;;;;;;;;;4997784;28;20046;-87
2023/08/03 12:28:40;;;;;;;2.90;1.08;;;;;;;;;;5003436;28;20042;-87
2023/08/03 12:31:08;;;;;;;4.32;1.30;;;;;;;;;;4997290;28;20141;-88
2023/08/03 12:33:35;;;;;;;1.02;0.85;;;;;;;;;;5008189;28;20069;-87
2023/08/03 12:36:03;;;;;;;1.95;1.10;;;;;;;;;;4987801;28;20141;-86
2023/08/03 12:38:30;;;;;;;1.45;0.93;;;;;;;;;;5005461;28;20155;-87
2023/08/03 12:40:58;;;;;;;3.40;1.25;;;;;;;;;;4992768;28;20142;-88
2023/08/03 12:46:47;;;;;;;2.63;1.20;;;;;;;;;;5003947;28;20045;-86
2023/08/03 12:49:17;;;;;;;2.22;0.90;;;;;;;;;;5003289;28;20046;-89
2023/08/03 12:51:46;;;;;;;1.42;0.80;;;;;;;;;;4967623;28;20089;-87
2023/08/03 12:54:13;;;;;;;3.05;1.33;;;;;;;;;;5011745;28;20136;-88
2023/08/03 12:56:46;;;;;;;1.55;1.08;;;;;;;;;;5013892;28;20662;-88
2023/08/03 12:59:16;;;;;;;1.10;0.90;;;;;;;;;;4994161;28;20046;-87
2023/08/03 13:01:44;;;;;;;1.67;0.90;;;;;;;;;;5003619;28;20053;-87
2023/08/03 13:04:13;;;;;;;3.65;1.05;;;;;;;;;;4992405;28;20053;-87
2023/08/03 13:07:11;;;;;;;2.13;0.90;;;;;;;;;;4999750;28;20050;-88
2023/08/03 13:09:38;;;;;;;4.05;1.02;;;;;;;;;;5010096;28;20053;-88
2023/08/03 13:12:06;;;;;;;1.23;1.00;;;;;;;;;;5011627;28;20054;-86
2023/08/03 13:14:33;;;;;;;4.97;1.20;;;;;;;;;;5010642;28;20054;-86
2023/08/03 13:17:01;;;;;;;3.20;1.05;;;;;;;;;;4992115;28;20054;-86
2023/08/03 13:19:28;;;;;;;2.17;0.90;;;;;;;;;;5010160;28;20745;-86
2023/08/03 13:21:56;;;;;;;3.33;1.10;;;;;;;;;;4984645;28;20050;-86
2023/08/03 13:24:27;;;;;;;2.85;0.88;;;;;;;;;;5001118;28;20046;-87
2023/08/03 13:27:11;;;;;;;3.15;0.90;;;;;;;;;;4996604;28;20547;-86
2023/08/03 13:29:43;;;;;;;2.83;1.20;;;;;;;;;;5010493;28;20046;-87
2023/08/03 13:32:14;;;;;;;4.00;1.30;;;;;;;;;;4982989;28;20057;-86
2023/08/03 13:34:41;;;;;;;2.88;1.00;;;;;;;;;;5010654;28;20116;-86
2023/08/03 13:37:10;;;;;;;3.47;1.02;;;;;;;;;;5002307;28;20104;-87
2023/08/03 13:39:48;;;;;;;1.20;1.10;;;;;;;;;;4988265;28;20125;-88
2023/08/03 13:42:22;;;;;;;3.60;0.90;;;;;;;;;;5009120;28;20038;-87
2023/08/03 13:44:49;;;;;;;2.80;1.00;;;;;;;;;;4978650;28;20104;-87
2023/08/03 13:47:17;;;;;;;1.27;1.10;;;;;;;;;;5009724;28;20045;-87
2023/08/03 13:49:44;;;;;;;2.55;1.00;;;;;;;;;;5010209;28;20088;-86
2023/08/03 13:52:11;;;;;;;3.05;1.15;;;;;;;;;;5005525;28;20084;-86
2023/08/03 13:54:39;;;;;;;2.22;1.15;;;;;;;;;;5007015;28;20042;-87
2023/08/03 13:57:07;;;;;;;1.73;1.10;;;;;;;;;;4989562;28;20057;-87
2023/08/03 13:59:35;;;;;;;2.05;0.90;;;;;;;;;;5009673;28;20346;-87
2023/08/03 14:02:03;;;;;;;3.40;1.25;;;;;;;;;;4988357;28;20049;-87
2023/08/03 14:04:34;;;;;;;2.90;1.75;;;;;;;;;;5007128;28;20045;-88
2023/08/03 14:07:01;;;;;;;2.43;1.10;;;;;;;;;;4988560;28;20129;-86
2023/08/03 14:09:31;;;;;;;2.00;1.27;;;;;;;;;;4989334;28;20108;-87
2023/08/03 14:11:59;;;;;;;2.45;1.20;;;;;;;;;;5006957;28;20129;-87
2023/08/03 14:14:26;;;;;;;3.30;1.35;;;;;;;;;;5005902;28;20060;-87
2023/08/03 14:16:57;;;;;;;3.35;1.30;;;;;;;;;;5002168;28;20115;-86
2023/08/03 14:19:25;;;;;;;2.33;0.98;;;;;;;;;;5007403;28;20053;-87
2023/08/03 14:21:59;;;;;;;3.50;1.35;;;;;;;;;;5002077;28;20073;-87
2023/08/03 14:24:36;;;;;;;2.60;1.15;;;;;;;;;;5002126;28;20054;-87
2023/08/03 14:27:43;;;;;;;3.25;1.20;;;;;;;;;;5009167;28;20128;-87
2023/08/03 14:30:28;;;;;;;2.75;1.40;;;;;;;;;;4990049;28;20050;-88
2023/08/03 14:33:14;;;;;;;1.52;1.00;;;;;;;;;;4993613;28;20054;-87
2023/08/03 14:36:00;;;;;;;1.83;1.30;;;;;;;;;;5005354;28;20050;-87
2023/08/03 14:38:50;;;;;;;3.15;1.17;;;;;;;;;;4988590;28;20431;-87
2023/08/03 14:41:30;;;;;;;2.53;1.13;;;;;;;;;;4976134;28;20073;-87
2023/08/03 14:44:04;;;;;;;2.45;1.17;;;;;;;;;;5007037;28;20534;-87
2023/08/03 14:46:47;;;;;;;2.20;1.02;;;;;;;;;;4989363;28;20046;-86
2023/08/03 14:49:43;;;;;;;1.67;1.08;;;;;;;;;;4990646;28;20050;-87
2023/08/03 14:52:19;;;;;;;1.25;1.00;;;;;;;;;;4998899;28;20073;-88
2023/08/03 14:55:16;;;;;;;2.08;1.08;;;;;;;;;;5006037;28;20136;-86
2023/08/03 14:58:01;;;;;;;1.88;1.00;;;;;;;;;;4989759;28;20076;-87
2023/08/03 15:00:44;;;;;;;2.30;1.00;;;;;;;;;;4990729;28;20037;-87
2023/08/03 15:03:40;;;;;;;1.52;1.00;;;;;;;;;;4986148;28;20262;-88
2023/08/03 15:06:31;;;;;;;1.60;1.00;;;;;;;;;;4972673;28;20045;-88